createdAt,value
2023-05-10T00:02:00.156Z,64.80
2023-05-10T00:04:27.856Z,65.33
2023-05-10T00:06:55.476Z,65.54
2023-05-10T00:09:27.641Z,65.65
2023-05-10T00:11:54.552Z,65.61
2023-05-10T00:14:21.464Z,65.96
2023-05-10T00:16:48.708Z,66.25
2023-05-10T00:19:16.604Z,66.19
2023-05-10T00:21:43.459Z,66.67
2023-05-10T00:24:16.562Z,66.25
2023-05-10T00:26:43.480Z,66.11
2023-05-10T00:29:15.966Z,65.84
2023-05-10T00:31:48.424Z,65.79
2023-05-10T00:34:15.387Z,65.94
2023-05-10T00:36:42.370Z,66.15
2023-05-10T00:39:09.212Z,65.89
2023-05-10T00:41:36.121Z,65.83
2023-05-10T00:44:04.677Z,65.55
2023-05-10T00:46:32.099Z,65.73
2023-05-10T00:48:59.140Z,66.14
2023-05-10T00:51:26.422Z,66.17
2023-05-10T00:53:54.150Z,66.15
2023-05-10T00:56:24.006Z,66.25
2023-05-10T00:58:51.055Z,66.21
2023-05-10T01:01:18.194Z,66.40
2023-05-10T01:03:45.465Z,66.35
2023-05-10T01:06:12.912Z,66.39
2023-05-10T01:08:39.941Z,66.60
2023-05-10T01:11:12.374Z,66.99
2023-05-10T01:13:41.769Z,67.30
2023-05-10T01:16:09.399Z,67.49
2023-05-10T01:18:40.498Z,67.36
2023-05-10T01:21:32.885Z,67.38
2023-05-10T01:24:30.988Z,67.52
2023-05-10T01:27:16.880Z,67.84
2023-05-10T01:30:05.090Z,68.04
2023-05-10T01:32:56.103Z,68.12
2023-05-10T01:35:40.824Z,68.30
2023-05-10T01:38:33.837Z,68.61
2023-05-10T01:41:32.959Z,68.79
2023-05-10T01:44:42.217Z,68.47
2023-05-10T01:47:15.370Z,68.00
2023-05-10T01:49:51.078Z,67.82
2023-05-10T01:52:22.126Z,67.60
2023-05-10T01:55:06.160Z,67.78
2023-05-10T01:57:34.918Z,68.15
2023-05-10T02:00:05.400Z,68.39
2023-05-10T02:02:45.437Z,68.78
2023-05-10T02:05:13.838Z,69.17
2023-05-10T02:07:40.613Z,69.61
2023-05-10T02:10:14.566Z,70.02
2023-05-10T02:13:01.528Z,70.69
2023-05-10T02:15:29.145Z,70.61
2023-05-10T02:17:56.499Z,70.88
2023-05-10T02:20:24.432Z,71.24
2023-05-10T02:22:52.503Z,71.33
2023-05-10T02:25:20.845Z,71.50
2023-05-10T02:27:48.496Z,71.53
2023-05-10T02:30:16.867Z,71.60
2023-05-10T02:32:44.757Z,71.89
2023-05-10T02:35:11.735Z,71.79
2023-05-10T02:37:44.032Z,71.59
2023-05-10T02:40:11.804Z,71.64
2023-05-10T02:42:39.453Z,71.78
2023-05-10T02:45:09.259Z,71.54
2023-05-10T02:47:36.550Z,71.84
2023-05-10T02:50:04.065Z,71.79
2023-05-10T02:52:39.377Z,72.04
2023-05-10T02:55:06.685Z,72.20
2023-05-10T02:57:34.798Z,72.12
2023-05-10T03:00:03.759Z,71.92
2023-05-10T03:02:31.572Z,71.98
2023-05-10T03:04:58.643Z,71.88
2023-05-10T03:07:27.162Z,71.93
2023-05-10T03:09:54.041Z,71.93
2023-05-10T03:12:58.805Z,71.92
2023-05-10T03:15:47.878Z,71.96
2023-05-10T03:18:30.383Z,71.88
2023-05-10T03:21:00.264Z,71.61
2023-05-10T03:23:45.891Z,71.34
2023-05-10T03:26:23.512Z,71.33
2023-05-10T03:28:56.066Z,71.04
2023-05-10T03:31:23.647Z,70.72
2023-05-10T03:33:51.597Z,70.50
2023-05-10T03:36:23.537Z,70.23
2023-05-10T03:38:50.711Z,69.90
2023-05-10T03:41:22.670Z,70.00
2023-05-10T03:43:56.041Z,69.73
2023-05-10T03:46:22.964Z,69.53
2023-05-10T03:48:50.693Z,69.26
2023-05-10T03:51:18.379Z,68.94
2023-05-10T03:53:45.307Z,68.52
2023-05-10T03:56:17.345Z,68.35
2023-05-10T03:58:51.018Z,68.02
2023-05-10T04:01:18.071Z,67.59
2023-05-10T04:03:45.829Z,67.22
2023-05-10T04:06:13.959Z,66.87
2023-05-10T04:08:41.015Z,65.90
2023-05-10T04:11:12.144Z,65.36
2023-05-10T04:13:39.289Z,65.25
2023-05-10T04:16:06.739Z,65.46
2023-05-10T04:18:34.049Z,65.40
2023-05-10T04:21:01.167Z,65.01
2023-05-10T04:23:28.561Z,64.08
2023-05-10T04:26:02.614Z,63.80
2023-05-10T04:28:29.779Z,63.18
2023-05-10T04:31:07.554Z,62.44
2023-05-10T04:33:34.840Z,61.94
2023-05-10T04:36:02.147Z,61.56
2023-05-10T04:38:29.614Z,60.88
2023-05-10T04:41:10.396Z,60.12
2023-05-10T04:43:37.960Z,59.23
2023-05-10T04:46:05.274Z,58.78
2023-05-10T04:48:32.348Z,58.28
2023-05-10T04:50:59.320Z,57.69
2023-05-10T04:53:26.219Z,56.92
2023-05-10T04:55:53.104Z,55.74
2023-05-10T04:58:20.611Z,55.26
2023-05-10T05:00:47.484Z,54.79
2023-05-10T05:03:14.403Z,53.85
2023-05-10T05:05:41.383Z,53.39
2023-05-10T05:08:09.423Z,52.98
2023-05-10T05:10:37.496Z,51.41
2023-05-10T05:13:04.321Z,50.63
2023-05-10T05:15:31.938Z,50.56
2023-05-10T05:17:59.145Z,48.86
2023-05-10T05:20:26.129Z,47.98
2023-05-10T05:22:53.746Z,47.75
2023-05-10T05:25:21.200Z,47.26
2023-05-10T05:27:48.385Z,46.69
2023-05-10T05:30:15.414Z,46.73
2023-05-10T05:32:44.510Z,46.60
2023-05-10T05:35:18.975Z,46.19
2023-05-10T05:37:46.076Z,45.76
2023-05-10T05:40:14.390Z,46.05
2023-05-10T05:42:41.868Z,45.94
2023-05-10T05:45:39.778Z,45.34
2023-05-10T05:48:07.580Z,45.08
2023-05-10T05:50:35.869Z,45.13
2023-05-10T05:53:03.249Z,44.22
2023-05-10T05:55:31.910Z,43.88
2023-05-10T05:58:03.072Z,42.31
2023-05-10T06:00:31.587Z,41.54
2023-05-10T06:02:58.647Z,40.71
2023-05-10T06:05:26.377Z,40.52
2023-05-10T06:07:54.376Z,40.18
2023-05-10T06:10:21.317Z,39.47
2023-05-10T06:12:48.728Z,39.92
2023-05-10T06:15:15.810Z,38.72
2023-05-10T06:17:43.812Z,37.76
2023-05-10T06:20:12.419Z,37.49
2023-05-10T06:22:39.534Z,37.82
2023-05-10T06:25:07.194Z,37.54
2023-05-10T06:27:34.900Z,37.09
2023-05-10T06:30:13.503Z,37.06
2023-05-10T06:32:46.446Z,36.62
2023-05-10T06:35:13.549Z,36.90
2023-05-10T06:37:40.403Z,37.14
2023-05-10T06:40:08.073Z,37.14
2023-05-10T06:42:35.852Z,37.36
2023-05-10T06:45:03.547Z,37.05
2023-05-10T06:47:30.992Z,37.18
2023-05-10T06:49:58.461Z,37.42
2023-05-10T06:52:25.407Z,37.31
2023-05-10T06:54:52.269Z,37.54
2023-05-10T06:57:31.138Z,37.60
2023-05-10T06:59:59.512Z,37.60
2023-05-10T07:02:29.925Z,37.38
2023-05-10T07:04:57.025Z,37.90
2023-05-10T07:07:25.123Z,37.73
2023-05-10T07:09:51.971Z,36.96
2023-05-10T07:12:18.952Z,37.08
2023-05-10T07:14:46.387Z,37.31
2023-05-10T07:17:14.250Z,36.83
2023-05-10T07:19:41.565Z,36.47
2023-05-10T07:22:08.419Z,36.72
2023-05-10T07:24:35.380Z,36.93
2023-05-10T07:27:02.207Z,36.88
2023-05-10T07:29:29.262Z,36.20
2023-05-10T07:31:58.717Z,35.63
2023-05-10T07:34:26.032Z,35.19
2023-05-10T07:36:53.503Z,34.67
2023-05-10T07:39:26.510Z,35.48
2023-05-10T07:41:56.235Z,36.05
2023-05-10T07:44:23.521Z,36.39
2023-05-10T07:46:51.769Z,37.32
2023-05-10T07:49:18.924Z,38.04
2023-05-10T07:51:45.816Z,38.15
2023-05-10T07:54:13.149Z,38.34
2023-05-10T07:56:45.223Z,38.50
2023-05-10T07:59:16.282Z,38.14
2023-05-10T08:01:43.279Z,37.56
2023-05-10T08:04:10.455Z,37.79
2023-05-10T08:06:38.698Z,38.00
2023-05-10T08:09:05.654Z,37.80
2023-05-10T08:11:34.348Z,38.13
2023-05-10T08:14:03.069Z,41.12
2023-05-10T08:16:30.105Z,44.73
2023-05-10T08:18:57.256Z,46.58
2023-05-10T08:21:24.198Z,48.24
2023-05-10T08:23:51.406Z,50.67
2023-05-10T08:26:18.323Z,49.26
2023-05-10T08:28:45.316Z,48.07
2023-05-10T08:31:17.653Z,45.57
2023-05-10T08:33:44.872Z,44.30
2023-05-10T08:36:14.499Z,44.05
2023-05-10T08:38:41.484Z,42.93
2023-05-10T08:41:08.549Z,43.27
2023-05-10T08:43:35.920Z,43.13
2023-05-10T08:46:03.458Z,42.16
2023-05-10T08:48:31.564Z,41.92
2023-05-10T08:51:00.498Z,40.58
2023-05-10T08:53:27.776Z,39.88
2023-05-10T08:55:54.685Z,39.36
2023-05-10T08:58:21.771Z,38.59
2023-05-10T09:00:51.402Z,39.48
2023-05-10T09:03:18.529Z,38.22
2023-05-10T09:05:45.555Z,37.78
2023-05-10T09:08:13.522Z,37.37
2023-05-10T09:10:40.829Z,37.16
2023-05-10T09:13:07.768Z,37.22
2023-05-10T09:15:34.822Z,37.32
2023-05-10T09:18:02.842Z,37.99
2023-05-10T09:20:29.873Z,37.19
2023-05-10T09:22:56.800Z,37.36
2023-05-10T09:25:23.645Z,37.47
2023-05-10T09:27:50.544Z,36.69
2023-05-10T09:30:27.058Z,35.98
2023-05-10T09:32:54.212Z,35.48
2023-05-10T09:35:22.838Z,35.44
2023-05-10T09:37:51.609Z,35.41
2023-05-10T09:40:20.432Z,34.80
2023-05-10T09:42:56.879Z,33.45
2023-05-10T09:45:24.926Z,32.52
2023-05-10T09:47:51.822Z,31.90
2023-05-10T09:50:20.073Z,31.93
2023-05-10T09:52:54.273Z,31.03
2023-05-10T09:55:23.310Z,30.82
2023-05-10T09:57:50.630Z,30.21
2023-05-10T10:00:21.380Z,29.77
2023-05-10T10:02:49.144Z,29.61
2023-05-10T10:05:16.277Z,29.62
2023-05-10T10:07:50.835Z,29.69
2023-05-10T10:10:17.796Z,29.89
2023-05-10T10:12:45.107Z,29.57
2023-05-10T10:15:12.317Z,30.03
2023-05-10T10:17:39.901Z,30.38
2023-05-10T10:20:09.339Z,29.99
2023-05-10T10:22:38.399Z,29.29
2023-05-10T10:25:05.692Z,29.70
2023-05-10T10:27:57.266Z,30.39
2023-05-10T10:30:30.093Z,33.17
2023-05-10T10:33:31.604Z,35.05
2023-05-10T10:35:59.417Z,36.94
2023-05-10T10:38:31.533Z,36.46
2023-05-10T10:41:03.252Z,36.91
2023-05-10T10:43:30.870Z,37.62
2023-05-10T10:46:17.537Z,36.47
2023-05-10T10:49:08.674Z,35.09
2023-05-10T10:51:39.683Z,34.73
2023-05-10T10:54:10.819Z,32.59
2023-05-10T10:56:37.768Z,32.58
2023-05-10T10:59:04.974Z,32.64
2023-05-10T11:01:37.976Z,32.03
2023-05-10T11:04:05.139Z,30.77
2023-05-10T11:06:33.895Z,29.83
2023-05-10T11:09:12.020Z,29.50
2023-05-10T11:11:52.496Z,28.67
2023-05-10T11:14:23.175Z,28.47
2023-05-10T11:16:50.215Z,28.22
2023-05-10T11:19:18.179Z,28.23
2023-05-10T11:21:49.832Z,27.62
2023-05-10T11:24:19.092Z,27.49
2023-05-10T11:26:45.982Z,27.62
2023-05-10T11:29:13.721Z,28.06
2023-05-10T11:31:48.021Z,28.43
2023-05-10T11:34:30.037Z,28.88
2023-05-10T11:36:57.060Z,30.09
2023-05-10T11:39:30.781Z,30.44
2023-05-10T11:41:58.293Z,31.22
2023-05-10T11:44:33.169Z,32.28
2023-05-10T11:47:04.093Z,33.07
2023-05-10T11:49:31.842Z,33.23
2023-05-10T11:52:08.150Z,33.56
2023-05-10T11:54:38.178Z,34.69
2023-05-10T11:57:05.590Z,33.87
2023-05-10T11:59:32.934Z,31.88
2023-05-10T12:02:01.344Z,31.77
2023-05-10T12:04:29.976Z,31.98
2023-05-10T12:06:58.743Z,31.98
2023-05-10T12:09:39.399Z,32.22
2023-05-10T12:12:12.135Z,31.53
2023-05-10T12:14:39.327Z,31.07
2023-05-10T12:17:06.561Z,31.10
2023-05-10T12:19:40.324Z,30.52
2023-05-10T12:22:07.261Z,30.27
2023-05-10T12:24:36.935Z,30.18
2023-05-10T12:27:08.575Z,30.67
2023-05-10T12:29:36.982Z,30.63
2023-05-10T12:32:04.075Z,30.44
2023-05-10T12:34:32.345Z,30.23
2023-05-10T12:36:59.338Z,30.24
2023-05-10T12:39:26.261Z,30.26
2023-05-10T12:41:53.487Z,30.62
2023-05-10T12:44:20.467Z,32.33
2023-05-10T12:46:47.423Z,33.19
2023-05-10T12:49:14.441Z,33.92
2023-05-10T12:51:41.561Z,34.62
2023-05-10T12:54:08.518Z,35.01
2023-05-10T12:56:35.370Z,35.46
2023-05-10T12:59:02.185Z,36.23
2023-05-10T13:01:29.871Z,36.79
2023-05-10T13:03:56.756Z,36.98
2023-05-10T13:06:24.335Z,36.57
2023-05-10T13:08:52.625Z,36.54
2023-05-10T13:11:21.112Z,36.92
2023-05-10T13:13:48.104Z,38.11
2023-05-10T13:16:15.113Z,38.94
2023-05-10T13:18:42.241Z,39.22
2023-05-10T13:21:09.209Z,39.63
2023-05-10T13:23:36.268Z,40.02
2023-05-10T13:26:03.470Z,40.41
2023-05-10T13:28:31.247Z,40.37
2023-05-10T13:30:58.190Z,40.51
2023-05-10T13:33:25.752Z,40.50
2023-05-10T13:35:54.412Z,40.95
2023-05-10T13:38:22.886Z,40.89
2023-05-10T13:40:53.440Z,40.64
2023-05-10T13:43:21.011Z,41.11
2023-05-10T13:45:48.125Z,41.87
2023-05-10T13:48:15.650Z,40.56
2023-05-10T13:50:43.332Z,38.97
2023-05-10T13:53:10.243Z,38.71
2023-05-10T13:56:39.156Z,38.40
2023-05-10T13:59:06.611Z,37.57
2023-05-10T14:01:34.242Z,37.30
2023-05-10T14:04:01.483Z,35.97
2023-05-10T14:06:29.076Z,36.07
2023-05-10T14:08:56.965Z,35.67
2023-05-10T14:11:24.736Z,35.06
2023-05-10T14:13:51.871Z,34.20
2023-05-10T14:16:19.777Z,32.46
2023-05-10T14:18:47.137Z,32.18
2023-05-10T14:21:14.247Z,31.64
2023-05-10T14:23:41.279Z,31.15
2023-05-10T14:26:09.714Z,31.06
2023-05-10T14:28:37.206Z,31.20
2023-05-10T14:31:04.475Z,31.24
2023-05-10T14:33:31.416Z,30.54
2023-05-10T14:35:58.473Z,30.60
2023-05-10T14:38:25.406Z,30.53
2023-05-10T14:40:52.297Z,30.42
2023-05-10T14:43:19.610Z,30.77
2023-05-10T14:45:47.092Z,30.54
2023-05-10T14:48:16.764Z,30.53
2023-05-10T14:50:44.494Z,30.64
2023-05-10T14:53:40.013Z,30.79
2023-05-10T14:56:07.709Z,31.24
2023-05-10T14:58:35.923Z,30.95
2023-05-10T15:01:03.253Z,31.59
2023-05-10T15:03:31.387Z,31.68
2023-05-10T15:05:59.398Z,31.67
2023-05-10T15:08:26.520Z,31.13
2023-05-10T15:10:55.950Z,30.89
2023-05-10T15:13:23.133Z,30.75
2023-05-10T15:15:50.664Z,30.70
2023-05-10T15:18:18.794Z,31.04
2023-05-10T15:20:45.691Z,31.13
2023-05-10T15:23:13.000Z,30.90
2023-05-10T15:25:39.983Z,31.58
2023-05-10T15:28:07.325Z,31.74
2023-05-10T15:30:39.375Z,31.87
2023-05-10T15:33:07.557Z,31.98
2023-05-10T15:35:36.645Z,32.20
2023-05-10T15:38:03.499Z,33.30
2023-05-10T15:40:35.887Z,33.00
2023-05-10T15:43:03.190Z,33.18
2023-05-10T15:45:30.299Z,33.61
2023-05-10T15:48:02.301Z,33.81
2023-05-10T15:50:29.696Z,33.27
2023-05-10T15:52:56.874Z,33.40
2023-05-10T15:55:23.870Z,33.60
2023-05-10T15:57:51.768Z,33.12
2023-05-10T16:00:18.802Z,33.03
2023-05-10T16:02:46.273Z,33.10
2023-05-10T16:05:14.751Z,33.45
2023-05-10T16:07:43.219Z,34.01
2023-05-10T16:10:10.699Z,34.67
2023-05-10T16:12:39.040Z,34.69
2023-05-10T16:15:08.188Z,34.63
2023-05-10T16:17:35.368Z,34.69
2023-05-10T16:20:02.459Z,34.90
2023-05-10T16:22:29.938Z,34.71
2023-05-10T16:25:01.971Z,34.78
2023-05-10T16:27:30.493Z,34.50
2023-05-10T16:29:57.594Z,34.73
2023-05-10T16:32:25.109Z,34.71
2023-05-10T16:34:53.306Z,34.67
2023-05-10T16:37:20.380Z,34.86
2023-05-10T16:39:47.891Z,35.01
2023-05-10T16:42:15.042Z,35.24
2023-05-10T16:44:42.254Z,35.63
2023-05-10T16:47:09.315Z,35.94
2023-05-10T16:52:03.659Z,36.60
2023-05-10T16:54:32.939Z,37.35
2023-05-10T16:57:01.277Z,38.25
2023-05-10T16:59:28.628Z,39.00
2023-05-10T17:01:55.844Z,39.54
2023-05-10T17:04:23.013Z,39.94
2023-05-10T17:06:50.097Z,40.11
2023-05-10T17:09:17.038Z,40.43
2023-05-10T17:11:44.026Z,40.78
2023-05-10T17:14:12.259Z,41.10
2023-05-10T17:16:39.223Z,41.57
2023-05-10T17:19:06.420Z,41.85
2023-05-10T17:21:34.925Z,42.26
2023-05-10T17:24:01.755Z,42.34
2023-05-10T17:26:29.477Z,42.52
2023-05-10T17:28:57.478Z,42.79
2023-05-10T17:31:24.824Z,42.86
2023-05-10T17:33:52.358Z,42.78
2023-05-10T17:36:19.299Z,43.19
2023-05-10T17:38:46.354Z,43.50
2023-05-10T17:41:14.273Z,44.18
2023-05-10T17:43:41.620Z,44.51
2023-05-10T17:46:08.642Z,44.08
2023-05-10T17:48:36.748Z,44.12
2023-05-10T17:51:03.765Z,44.25
2023-05-10T17:53:34.592Z,44.51
2023-05-10T17:56:01.500Z,44.61
2023-05-10T17:58:29.943Z,45.12
2023-05-10T18:00:57.213Z,45.72
2023-05-10T18:03:24.322Z,46.00
2023-05-10T18:05:51.221Z,46.07
2023-05-10T18:08:22.560Z,45.91
2023-05-10T18:10:54.632Z,45.79
2023-05-10T18:13:21.852Z,45.57
2023-05-10T18:15:48.802Z,45.88
2023-05-10T18:18:16.681Z,46.29
2023-05-10T18:20:45.683Z,46.94
2023-05-10T18:23:14.475Z,47.30
2023-05-10T18:25:42.210Z,47.12
2023-05-10T18:28:09.347Z,46.75
2023-05-10T18:30:36.904Z,47.64
2023-05-10T18:33:04.344Z,47.66
2023-05-10T18:35:32.048Z,47.16
2023-05-10T18:37:58.968Z,47.09
2023-05-10T18:40:31.489Z,47.11
2023-05-10T18:42:58.431Z,46.65
2023-05-10T18:45:25.593Z,47.99
2023-05-10T18:47:52.598Z,47.55
2023-05-10T18:50:19.592Z,47.58
2023-05-10T18:52:46.638Z,47.81
2023-05-10T18:55:20.068Z,48.20
2023-05-10T18:57:47.384Z,47.84
2023-05-10T19:00:14.542Z,47.87
2023-05-10T19:02:42.750Z,48.09
2023-05-10T19:05:09.995Z,48.00
2023-05-10T19:07:37.746Z,47.92
2023-05-10T19:10:06.123Z,48.20
2023-05-10T19:12:33.450Z,48.33
2023-05-10T19:15:00.520Z,48.48
2023-05-10T19:17:27.509Z,48.43
2023-05-10T19:19:56.756Z,48.58
2023-05-10T19:22:35.965Z,48.89
2023-05-10T19:25:12.742Z,49.25
2023-05-10T19:27:40.069Z,49.30
2023-05-10T19:30:08.337Z,49.04
2023-05-10T19:32:36.695Z,48.73
2023-05-10T19:35:04.346Z,48.45
2023-05-10T19:37:31.479Z,48.78
2023-05-10T19:39:58.482Z,48.44
2023-05-10T19:42:25.637Z,47.89
2023-05-10T19:44:57.917Z,47.71
2023-05-10T19:47:25.108Z,47.49
2023-05-10T19:49:52.364Z,47.71
2023-05-10T19:52:19.359Z,47.66
2023-05-10T19:54:51.450Z,47.68
2023-05-10T19:57:18.326Z,47.80
2023-05-10T19:59:45.555Z,47.76
2023-05-10T20:02:17.937Z,48.07
2023-05-10T20:04:44.807Z,47.82
2023-05-10T20:07:12.283Z,47.85
2023-05-10T20:09:44.511Z,48.11
2023-05-10T20:12:12.306Z,48.02
2023-05-10T20:14:39.341Z,48.46
2023-05-10T20:17:06.518Z,48.38
2023-05-10T20:19:34.644Z,48.39
2023-05-10T20:22:02.150Z,48.36
2023-05-10T20:24:29.847Z,48.57
2023-05-10T20:26:57.283Z,48.61
2023-05-10T20:29:24.104Z,48.53
2023-05-10T20:31:51.346Z,48.70
2023-05-10T20:34:18.505Z,49.14
2023-05-10T20:36:46.106Z,49.30
2023-05-10T20:39:13.794Z,49.80
2023-05-10T20:41:41.364Z,50.09
2023-05-10T20:44:08.481Z,50.60
2023-05-10T20:46:35.734Z,50.46
2023-05-10T20:49:03.897Z,50.94
2023-05-10T20:51:32.962Z,51.09
2023-05-10T20:54:02.164Z,51.48
2023-05-10T20:56:29.991Z,51.70
2023-05-10T20:58:56.866Z,52.33
2023-05-10T21:01:24.464Z,52.41
2023-05-10T21:03:51.946Z,52.59
2023-05-10T21:06:19.413Z,52.15
2023-05-10T21:08:49.973Z,52.17
2023-05-10T21:11:23.160Z,52.70
2023-05-10T21:13:50.825Z,52.86
2023-05-10T21:16:17.682Z,52.62
2023-05-10T21:18:44.753Z,52.51
2023-05-10T21:21:11.929Z,52.61
2023-05-10T21:23:38.901Z,52.73
2023-05-10T21:26:05.893Z,52.94
2023-05-10T21:28:32.923Z,53.21
2023-05-10T21:30:59.854Z,53.32
2023-05-10T21:34:29.969Z,53.24
2023-05-10T21:37:50.299Z,53.38
2023-05-10T21:41:22.071Z,53.45
2023-05-10T21:44:20.614Z,53.93
2023-05-10T21:46:48.044Z,53.35
2023-05-10T21:49:15.006Z,53.05
2023-05-10T21:51:42.281Z,52.97
2023-05-10T21:54:09.343Z,53.13
2023-05-10T21:56:37.377Z,53.26
2023-05-10T21:59:04.698Z,53.38
2023-05-10T22:01:32.908Z,53.33
2023-05-10T22:04:00.153Z,53.66
2023-05-10T22:06:27.178Z,53.78
2023-05-10T22:08:54.499Z,53.71
2023-05-10T22:11:21.363Z,54.01
2023-05-10T22:13:48.451Z,54.01
2023-05-10T22:16:15.641Z,54.09
2023-05-10T22:18:43.315Z,54.24
2023-05-10T22:21:10.369Z,54.20
2023-05-10T22:23:38.122Z,54.11
2023-05-10T22:26:05.018Z,54.06
2023-05-10T22:28:32.496Z,54.14
2023-05-10T22:31:10.947Z,54.35
2023-05-10T22:33:38.205Z,54.11
2023-05-10T22:36:06.082Z,54.27
2023-05-10T22:38:33.275Z,54.57
2023-05-10T22:41:00.454Z,54.43
2023-05-10T22:43:27.343Z,54.46
2023-05-10T22:45:59.677Z,54.57
2023-05-10T22:48:29.960Z,54.50
2023-05-10T22:50:56.940Z,54.69
2023-05-10T22:53:29.500Z,54.82
2023-05-10T22:55:56.589Z,54.72
2023-05-10T22:58:23.563Z,54.90
2023-05-10T23:00:50.623Z,54.98
2023-05-10T23:03:17.557Z,55.20
2023-05-10T23:05:44.721Z,55.62
2023-05-10T23:08:11.642Z,55.76
2023-05-10T23:10:38.709Z,55.78
2023-05-10T23:13:10.697Z,55.83
2023-05-10T23:15:44.781Z,55.95
2023-05-10T23:18:12.393Z,56.08
2023-05-10T23:20:42.652Z,56.29
2023-05-10T23:23:15.488Z,56.79
2023-05-10T23:25:43.037Z,57.20
2023-05-10T23:28:12.961Z,57.17
2023-05-10T23:30:40.275Z,57.48
2023-05-10T23:33:08.039Z,57.49
2023-05-10T23:35:35.234Z,57.12
2023-05-10T23:38:07.608Z,57.09
2023-05-10T23:40:35.052Z,57.11
2023-05-10T23:43:02.283Z,57.24
2023-05-10T23:45:29.418Z,57.08
2023-05-10T23:47:56.558Z,57.23
2023-05-10T23:50:23.470Z,57.58
2023-05-10T23:52:50.340Z,57.82
2023-05-10T23:55:17.796Z,58.21
2023-05-10T23:57:44.920Z,58.45
